createdAt,value
2018-09-14T00:00:54.349Z,15.10
2018-09-14T00:03:31.012Z,14.87
2018-09-14T00:06:07.950Z,14.50
2018-09-14T00:08:44.174Z,15.77
2018-09-14T00:11:21.224Z,15.90
2018-09-14T00:13:57.988Z,16.23
2018-09-14T00:16:33.880Z,16.50
2018-09-14T00:19:10.273Z,17.50
2018-09-14T00:21:46.498Z,17.47
2018-09-14T00:24:23.314Z,16.83
2018-09-14T00:26:59.166Z,17.53
2018-09-14T00:29:36.352Z,16.93
2018-09-14T00:32:13.503Z,16.97
2018-09-14T00:34:50.615Z,16.10
2018-09-14T00:37:27.854Z,16.30
2018-09-14T00:40:05.960Z,16.67
2018-09-14T00:42:41.496Z,16.80
2018-09-14T00:45:19.758Z,16.70
2018-09-14T00:47:56.160Z,17.53
2018-09-14T00:50:32.700Z,15.50
2018-09-14T00:53:08.904Z,16.83
2018-09-14T00:55:45.869Z,15.97
2018-09-14T00:58:22.764Z,17.20
2018-09-14T01:00:59.704Z,17.53
2018-09-14T01:03:35.996Z,17.17
2018-09-14T01:06:12.721Z,16.97
2018-09-14T01:08:49.369Z,18.27
2018-09-14T01:11:27.349Z,17.90
2018-09-14T01:14:04.445Z,17.27
2018-09-14T01:16:41.125Z,16.90
2018-09-14T01:19:18.109Z,16.43
2018-09-14T01:21:55.236Z,18.27
2018-09-14T01:24:30.999Z,17.23
2018-09-14T01:27:07.877Z,17.77
2018-09-14T01:29:44.148Z,17.47
2018-09-14T01:32:21.254Z,17.37
2018-09-14T01:35:00.359Z,18.17
2018-09-14T01:37:35.931Z,17.80
2018-09-14T01:40:11.781Z,17.90
2018-09-14T01:42:48.556Z,17.60
2018-09-14T01:45:26.312Z,18.80
2018-09-14T01:48:02.005Z,18.63
2018-09-14T01:50:37.734Z,17.83
2018-09-14T01:53:15.617Z,18.27
2018-09-14T01:55:52.362Z,17.20
2018-09-14T01:58:28.813Z,17.43
2018-09-14T02:01:06.549Z,18.80
2018-09-14T02:03:44.972Z,17.93
2018-09-14T02:06:21.353Z,17.70
2018-09-14T02:08:57.499Z,18.27
2018-09-14T02:11:33.824Z,18.50
2018-09-14T02:14:11.516Z,18.13
2018-09-14T02:16:47.499Z,17.40
2018-09-14T02:19:23.662Z,19.07
2018-09-14T02:21:59.288Z,18.87
2018-09-14T02:24:37.909Z,19.60
2018-09-14T02:27:15.231Z,18.63
2018-09-14T02:29:51.565Z,19.03
2018-09-14T02:32:27.930Z,18.23
2018-09-14T02:35:03.552Z,18.70
2018-09-14T02:37:39.397Z,18.13
2018-09-14T02:40:15.364Z,17.93
2018-09-14T02:42:51.854Z,18.57
2018-09-14T02:45:27.924Z,16.63
2018-09-14T02:48:04.477Z,18.13
2018-09-14T02:50:40.858Z,17.30
2018-09-14T02:53:17.210Z,17.43
2018-09-14T02:55:53.675Z,18.20
2018-09-14T02:58:30.121Z,18.60
2018-09-14T03:01:07.681Z,17.47
2018-09-14T03:03:44.581Z,16.90
2018-09-14T03:06:20.645Z,17.90
2018-09-14T03:08:57.494Z,17.73
2018-09-14T03:11:33.819Z,20.30
2018-09-14T03:14:10.595Z,15.23
2018-09-14T03:16:48.340Z,16.80
2018-09-14T03:19:27.209Z,17.13
2018-09-14T03:22:03.746Z,18.27
2018-09-14T03:24:40.071Z,17.33
2018-09-14T03:27:19.306Z,17.80
2018-09-14T03:29:55.390Z,19.10
2018-09-14T03:32:32.618Z,20.10
2018-09-14T03:35:08.632Z,18.97
2018-09-14T03:37:44.793Z,18.33
2018-09-14T03:40:21.420Z,19.70
2018-09-14T03:42:58.282Z,19.03
2018-09-14T03:45:37.678Z,19.50
2018-09-14T03:48:14.401Z,20.40
2018-09-14T03:50:50.591Z,20.43
2018-09-14T03:53:27.517Z,20.40
2018-09-14T03:56:04.514Z,20.53
2018-09-14T03:58:42.560Z,21.40
2018-09-14T04:01:18.413Z,20.47
2018-09-14T04:03:56.451Z,21.67
2018-09-14T04:06:33.259Z,20.67
2018-09-14T04:09:11.148Z,20.23
2018-09-14T04:11:47.251Z,21.17
2018-09-14T04:14:24.328Z,21.93
2018-09-14T04:17:00.702Z,21.13
2018-09-14T04:19:36.754Z,22.20
2018-09-14T04:22:13.458Z,21.63
2018-09-14T04:24:49.369Z,21.47
2018-09-14T04:27:25.913Z,20.50
2018-09-14T04:30:02.255Z,21.37
2018-09-14T04:32:39.059Z,20.87
2018-09-14T04:35:16.332Z,19.93
2018-09-14T04:37:52.934Z,21.03
2018-09-14T04:40:29.941Z,19.70
2018-09-14T04:43:06.143Z,19.47
2018-09-14T04:45:42.966Z,19.63
2018-09-14T04:48:20.671Z,19.03
2018-09-14T04:50:59.478Z,20.27
2018-09-14T04:53:35.808Z,19.20
2018-09-14T04:56:14.487Z,19.20
2018-09-14T04:58:51.482Z,18.83
2018-09-14T05:01:28.844Z,19.57
2018-09-14T05:04:05.488Z,18.13
2018-09-14T05:06:42.212Z,18.33
2018-09-14T05:09:20.221Z,20.37
2018-09-14T05:11:56.256Z,18.33
2018-09-14T05:14:32.014Z,19.80
2018-09-14T05:17:08.295Z,19.10
2018-09-14T05:19:44.557Z,18.23
2018-09-14T05:22:21.739Z,18.47
2018-09-14T05:24:57.366Z,18.13
2018-09-14T05:27:33.784Z,19.93
2018-09-14T05:30:09.624Z,17.97
2018-09-14T05:32:45.690Z,18.23
2018-09-14T05:35:23.211Z,19.17
2018-09-14T05:37:59.823Z,17.67
2018-09-14T05:40:36.428Z,17.37
2018-09-14T05:43:12.874Z,16.20
2018-09-14T05:45:49.364Z,15.87
2018-09-14T05:48:25.483Z,15.87
2018-09-14T05:51:02.089Z,15.00
2018-09-14T05:53:39.301Z,15.33
2018-09-14T05:56:17.464Z,14.90
2018-09-14T05:58:54.170Z,13.50
2018-09-14T06:01:30.682Z,14.97
2018-09-14T06:04:07.052Z,14.20
2018-09-14T06:06:43.483Z,13.73
2018-09-14T06:09:20.073Z,14.80
2018-09-14T06:11:56.151Z,15.10
2018-09-14T06:14:33.897Z,15.60
2018-09-14T06:17:10.712Z,15.63
2018-09-14T06:19:47.809Z,16.53
2018-09-14T06:22:24.490Z,16.40
2018-09-14T06:25:02.005Z,14.33
2018-09-14T06:27:38.245Z,14.23
2018-09-14T06:30:15.659Z,12.77
2018-09-14T06:32:52.397Z,13.13
2018-09-14T06:35:28.964Z,11.90
2018-09-14T06:38:06.349Z,12.37
2018-09-14T06:40:45.520Z,11.67
2018-09-14T06:43:21.501Z,11.93
2018-09-14T06:45:59.996Z,12.07
2018-09-14T06:48:36.531Z,12.20
2018-09-14T06:51:12.705Z,12.23
2018-09-14T06:53:49.321Z,12.67
2018-09-14T06:56:26.247Z,11.53
2018-09-14T06:59:03.532Z,12.47
2018-09-14T07:01:42.134Z,12.90
2018-09-14T07:04:18.363Z,13.43
2018-09-14T07:06:54.922Z,13.20
2018-09-14T07:09:31.390Z,12.53
2018-09-14T07:12:07.353Z,11.13
2018-09-14T07:14:43.473Z,11.90
2018-09-14T07:17:20.073Z,12.63
2018-09-14T07:19:56.060Z,10.70
2018-09-14T07:22:31.842Z,13.13
2018-09-14T07:25:08.751Z,13.27
2018-09-14T07:27:45.224Z,13.87
2018-09-14T07:30:21.757Z,13.23
2018-09-14T07:32:58.526Z,12.97
2018-09-14T07:35:36.630Z,13.30
2018-09-14T07:38:12.805Z,13.80
2018-09-14T07:40:49.027Z,12.63
2018-09-14T07:43:26.621Z,13.07
2018-09-14T07:46:05.005Z,13.67
2018-09-14T07:48:41.543Z,15.30
2018-09-14T07:51:21.158Z,13.97
2018-09-14T07:53:58.318Z,13.90
2018-09-14T07:56:35.504Z,13.47
2018-09-14T07:59:11.546Z,13.50
2018-09-14T08:01:48.205Z,14.27
2018-09-14T08:04:26.128Z,14.73
2018-09-14T08:07:03.546Z,15.23
2018-09-14T08:09:41.348Z,14.87
2018-09-14T08:12:17.384Z,14.60
2018-09-14T08:14:54.735Z,13.17
2018-09-14T08:17:31.436Z,14.63
2018-09-14T08:20:07.718Z,14.90
2018-09-14T08:22:44.159Z,15.77
2018-09-14T08:25:20.508Z,15.07
2018-09-14T08:27:57.424Z,14.50
2018-09-14T08:30:34.030Z,15.00
2018-09-14T08:33:11.040Z,15.60
2018-09-14T08:35:47.481Z,15.03
2018-09-14T08:38:24.520Z,14.70
2018-09-14T08:41:00.861Z,16.17
2018-09-14T08:43:38.416Z,15.30
2018-09-14T08:46:15.484Z,16.70
2018-09-14T08:48:51.553Z,15.23
2018-09-14T08:51:27.236Z,16.33
2018-09-14T08:54:04.260Z,16.50
2018-09-14T08:56:42.513Z,15.37
2018-09-14T08:59:18.471Z,15.73
2018-09-14T09:01:54.160Z,15.10
2018-09-14T09:04:30.014Z,14.20
2018-09-14T09:07:07.354Z,15.00
2018-09-14T09:09:43.836Z,15.20
2018-09-14T09:12:20.644Z,14.67
2018-09-14T09:14:57.036Z,14.73
2018-09-14T09:17:33.922Z,14.83
2018-09-14T09:20:11.554Z,15.30
2018-09-14T09:22:48.877Z,14.37
2018-09-14T09:25:26.261Z,14.90
2018-09-14T09:28:04.221Z,13.80
2018-09-14T09:30:41.451Z,14.40
2018-09-14T09:33:21.002Z,13.00
2018-09-14T09:36:00.456Z,13.73
2018-09-14T09:38:39.056Z,13.20
2018-09-14T09:41:17.373Z,12.10
2018-09-14T09:43:54.319Z,12.40
2018-09-14T09:46:30.879Z,12.03
2018-09-14T09:49:09.596Z,11.40
2018-09-14T09:51:47.005Z,12.33
2018-09-14T09:54:24.622Z,12.73
2018-09-14T09:57:01.208Z,12.40
2018-09-14T09:59:37.448Z,11.60
2018-09-14T10:02:19.702Z,11.93
2018-09-14T10:05:01.463Z,11.40
2018-09-14T10:07:39.821Z,11.50
2018-09-14T10:10:15.764Z,11.10
2018-09-14T10:12:53.561Z,11.23
2018-09-14T10:15:31.438Z,10.20
2018-09-14T10:18:07.638Z,11.20
2018-09-14T10:20:44.225Z,10.67
2018-09-14T10:23:20.386Z,11.30
2018-09-14T10:25:56.752Z,10.37
2018-09-14T10:28:32.731Z,10.43
2018-09-14T10:31:09.988Z,10.33
2018-09-14T10:33:46.862Z,10.47
2018-09-14T10:36:23.337Z,10.17
2018-09-14T10:39:01.408Z,10.40
2018-09-14T10:41:38.699Z,9.40
2018-09-14T10:44:14.650Z,9.67
2018-09-14T10:46:50.628Z,10.30
2018-09-14T10:49:27.312Z,11.00
2018-09-14T10:52:03.985Z,12.53
2018-09-14T10:54:42.069Z,12.63
2018-09-14T10:57:20.099Z,9.30
2018-09-14T10:59:57.046Z,8.77
2018-09-14T11:02:33.239Z,9.40
2018-09-14T11:05:10.486Z,9.50
2018-09-14T11:07:47.393Z,9.43
2018-09-14T11:10:23.545Z,9.30
2018-09-14T11:13:00.635Z,9.47
2018-09-14T11:15:38.196Z,8.87
2018-09-14T11:18:14.433Z,8.47
2018-09-14T11:20:50.391Z,8.37
2018-09-14T11:23:26.960Z,9.20
2018-09-14T11:26:04.625Z,9.07
2018-09-14T11:28:41.741Z,9.00
2018-09-14T11:31:18.069Z,8.67
2018-09-14T11:33:55.064Z,8.33
2018-09-14T11:36:31.700Z,8.80
2018-09-14T11:39:10.135Z,9.90
2018-09-14T11:41:46.526Z,9.50
2018-09-14T11:44:22.392Z,9.07
2018-09-14T11:46:58.700Z,9.13
2018-09-14T11:49:35.227Z,9.33
2018-09-14T11:52:13.176Z,8.10
2018-09-14T11:54:50.914Z,8.73
2018-09-14T11:57:28.031Z,8.13
2018-09-14T12:00:09.185Z,9.80
2018-09-14T12:02:50.380Z,9.33
2018-09-14T12:05:30.845Z,8.47
2018-09-14T12:08:11.331Z,8.37
2018-09-14T12:10:52.037Z,8.23
2018-09-14T12:13:34.004Z,9.17
2018-09-14T12:16:14.662Z,9.30
2018-09-14T12:18:55.504Z,9.13
2018-09-14T12:21:36.927Z,9.43
2018-09-14T12:24:17.828Z,9.13
2018-09-14T12:26:58.745Z,7.63
2018-09-14T12:29:39.213Z,9.10
2018-09-14T12:32:20.858Z,7.60
2018-09-14T12:35:01.362Z,7.63
2018-09-14T12:37:41.809Z,8.00
2018-09-14T12:40:23.089Z,7.90
2018-09-14T12:43:04.079Z,8.17
2018-09-14T12:45:45.050Z,7.80
2018-09-14T12:48:25.820Z,7.20
2018-09-14T12:51:07.753Z,8.03
2018-09-14T12:53:48.614Z,7.20
2018-09-14T12:56:30.264Z,6.80
2018-09-14T12:59:11.305Z,6.70
2018-09-14T13:01:52.219Z,6.60
2018-09-14T13:04:33.035Z,6.67
2018-09-14T13:07:13.868Z,6.50
2018-09-14T13:09:55.658Z,6.30
2018-09-14T13:12:36.108Z,6.03
2018-09-14T13:15:17.057Z,6.60
2018-09-14T13:17:58.249Z,7.03
2018-09-14T13:20:39.081Z,7.00
2018-09-14T13:23:19.689Z,7.20
2018-09-14T13:26:01.657Z,6.17
2018-09-14T13:28:42.561Z,6.70
2018-09-14T13:31:23.327Z,7.33
2018-09-14T13:34:03.723Z,6.70
2018-09-14T13:36:44.632Z,5.67
2018-09-14T13:39:26.043Z,6.00
2018-09-14T13:42:06.908Z,5.10
2018-09-14T13:44:47.695Z,5.30
2018-09-14T13:47:28.794Z,5.80
2018-09-14T13:50:09.616Z,5.87
2018-09-14T13:52:50.599Z,5.33
2018-09-14T13:55:31.716Z,5.53
2018-09-14T13:58:12.156Z,5.83
2018-09-14T14:00:52.802Z,5.20
2018-09-14T14:03:33.372Z,4.87
2018-09-14T14:06:14.413Z,5.53
2018-09-14T14:08:55.642Z,5.07
2018-09-14T14:11:36.748Z,5.10
2018-09-14T14:14:18.431Z,5.43
2018-09-14T14:16:59.192Z,4.93
2018-09-14T14:19:39.812Z,5.47
2018-09-14T14:22:20.798Z,4.90
2018-09-14T14:25:03.934Z,4.70
2018-09-14T14:27:44.977Z,5.00
2018-09-14T14:30:26.262Z,4.43
2018-09-14T14:33:07.596Z,4.63
2018-09-14T14:35:48.619Z,4.20
2018-09-14T14:38:29.588Z,4.60
2018-09-14T14:41:11.053Z,4.33
2018-09-14T14:43:51.981Z,4.40
2018-09-14T14:46:37.425Z,4.53
2018-09-14T14:49:18.583Z,4.53
2018-09-14T14:52:00.285Z,4.07
2018-09-14T14:54:41.684Z,3.97
2018-09-14T14:57:24.509Z,6.37
2018-09-14T15:00:05.062Z,7.47
2018-09-14T15:02:46.410Z,7.97
2018-09-14T15:05:26.944Z,7.60
2018-09-14T15:08:09.928Z,6.97
2018-09-14T15:10:50.914Z,6.50
2018-09-14T15:13:32.026Z,6.50
2018-09-14T15:16:13.189Z,6.37
2018-09-14T15:18:54.544Z,6.20
2018-09-14T15:21:35.561Z,9.43
2018-09-14T15:24:16.847Z,7.27
2018-09-14T15:26:57.925Z,6.80
2018-09-14T15:29:38.484Z,7.27
2018-09-14T15:32:19.704Z,8.30
2018-09-14T15:35:00.563Z,7.27
2018-09-14T15:37:41.054Z,6.97
2018-09-14T15:40:22.111Z,6.53
2018-09-14T15:43:03.943Z,7.17
2018-09-14T15:45:44.701Z,6.93
2018-09-14T15:48:25.151Z,6.90
2018-09-14T15:51:05.612Z,6.60
2018-09-14T15:53:46.426Z,7.43
2018-09-14T15:56:27.804Z,5.33
2018-09-14T15:59:10.342Z,6.77
2018-09-14T16:01:51.270Z,6.90
2018-09-14T16:04:32.013Z,5.87
2018-09-14T16:07:12.562Z,6.30
2018-09-14T16:09:53.136Z,6.47
2018-09-14T16:12:34.027Z,5.87
2018-09-14T16:15:15.207Z,6.37
2018-09-14T16:17:55.787Z,7.00
2018-09-14T16:20:36.930Z,7.20
2018-09-14T16:23:17.537Z,8.17
2018-09-14T16:25:57.966Z,7.53
2018-09-14T16:28:38.863Z,9.40
2018-09-14T16:31:19.943Z,9.63
2018-09-14T16:34:00.674Z,7.90
2018-09-14T16:36:41.325Z,8.67
2018-09-14T16:39:22.286Z,7.73
2018-09-14T16:42:02.821Z,9.10
2018-09-14T16:44:43.543Z,7.93
2018-09-14T16:47:24.204Z,7.73
2018-09-14T16:50:04.810Z,8.47
2018-09-14T16:52:45.964Z,9.07
2018-09-14T16:55:26.613Z,8.73
2018-09-14T16:58:08.025Z,9.60
2018-09-14T17:00:48.710Z,10.43
2018-09-14T17:03:29.409Z,9.90
2018-09-14T17:06:10.026Z,9.67
2018-09-14T17:08:50.913Z,10.57
2018-09-14T17:11:31.421Z,10.30
2018-09-14T17:14:13.272Z,10.10
2018-09-14T17:16:54.159Z,8.90
2018-09-14T17:19:34.909Z,9.17
2018-09-14T17:22:15.521Z,9.83
2018-09-14T17:24:56.117Z,11.27
2018-09-14T17:27:37.883Z,11.80
2018-09-14T17:30:18.754Z,11.23
2018-09-14T17:32:59.687Z,11.13
2018-09-14T17:35:40.708Z,10.87
2018-09-14T17:38:22.041Z,10.93
2018-09-14T17:41:03.427Z,12.03
2018-09-14T17:43:43.964Z,11.00
2018-09-14T17:46:24.533Z,11.87
2018-09-14T17:49:05.423Z,11.70
2018-09-14T17:51:45.903Z,10.73
2018-09-14T17:54:27.012Z,11.73
2018-09-14T17:57:07.978Z,11.80
2018-09-14T17:59:48.590Z,12.03
2018-09-14T18:02:29.719Z,12.23
2018-09-14T18:05:10.385Z,12.90
2018-09-14T18:07:52.228Z,13.57
2018-09-14T18:10:33.227Z,13.00
2018-09-14T18:13:14.405Z,13.87
2018-09-14T18:15:56.299Z,13.63
2018-09-14T18:18:37.263Z,13.30
2018-09-14T18:21:17.909Z,12.70
2018-09-14T18:23:59.386Z,13.07
2018-09-14T18:26:40.160Z,11.97
2018-09-14T18:29:20.759Z,12.63
2018-09-14T18:32:01.693Z,12.10
2018-09-14T18:34:42.792Z,12.97
2018-09-14T18:37:23.569Z,14.23
2018-09-14T18:40:04.367Z,14.47
2018-09-14T18:42:44.895Z,15.17
2018-09-14T18:45:25.432Z,16.27
2018-09-14T18:48:06.020Z,16.40
2018-09-14T18:50:47.034Z,16.73
2018-09-14T18:53:28.670Z,15.80
2018-09-14T18:56:09.542Z,17.40
2018-09-14T18:58:50.948Z,15.77
2018-09-14T19:01:31.939Z,16.80
2018-09-14T19:04:12.971Z,17.00
2018-09-14T19:06:53.844Z,17.43
2018-09-14T19:09:34.600Z,16.67
2018-09-14T19:12:15.690Z,18.27
2018-09-14T19:14:56.252Z,16.87
2018-09-14T19:17:36.869Z,16.53
2018-09-14T19:20:18.045Z,17.00
2018-09-14T19:22:59.299Z,16.53
2018-09-14T19:25:40.108Z,15.57
2018-09-14T19:28:20.628Z,17.53
2018-09-14T19:31:01.132Z,17.27
2018-09-14T19:33:42.265Z,18.43
2018-09-14T19:36:23.061Z,16.00
2018-09-14T19:39:04.769Z,16.20
2018-09-14T19:41:45.602Z,15.60
2018-09-14T19:44:26.256Z,14.83
2018-09-14T19:47:07.036Z,15.87
2018-09-14T19:52:33.695Z,14.97
2018-09-14T19:55:14.773Z,15.13
2018-09-14T19:57:55.514Z,16.17
2018-09-14T20:00:36.898Z,15.20
2018-09-14T20:03:17.381Z,14.53
2018-09-14T20:05:57.821Z,15.47
2018-09-14T20:08:38.897Z,13.60
2018-09-14T20:11:19.790Z,14.30
2018-09-14T20:14:00.305Z,14.70
2018-09-14T20:16:41.506Z,14.90
2018-09-14T20:19:21.949Z,15.73
2018-09-14T20:22:02.521Z,16.30
2018-09-14T20:24:44.069Z,16.17
2018-09-14T20:27:24.614Z,15.20
2018-09-14T20:30:05.669Z,16.63
2018-09-14T20:32:46.321Z,16.77
2018-09-14T20:35:26.804Z,16.57
2018-09-14T20:38:08.903Z,17.00
2018-09-14T20:40:50.915Z,16.40
2018-09-14T20:43:32.756Z,17.40
2018-09-14T20:46:13.330Z,16.27
2018-09-14T20:48:53.898Z,16.57
2018-09-14T20:51:34.555Z,17.93
2018-09-14T20:54:15.425Z,16.83
2018-09-14T20:56:56.410Z,17.60
2018-09-14T20:59:37.077Z,18.10
2018-09-14T21:02:17.646Z,17.27
2018-09-14T21:04:58.066Z,16.53
2018-09-14T21:07:38.690Z,17.17
2018-09-14T21:10:19.479Z,18.27
2018-09-14T21:13:00.065Z,18.63
2018-09-14T21:15:42.472Z,16.87
2018-09-14T21:18:23.001Z,17.40
2018-09-14T21:21:04.325Z,17.13
2018-09-14T21:23:45.095Z,17.30
2018-09-14T21:26:26.293Z,17.10
2018-09-14T21:29:07.482Z,15.73
2018-09-14T21:31:48.199Z,17.20
2018-09-14T21:34:28.758Z,17.40
2018-09-14T21:37:09.765Z,16.87
2018-09-14T21:39:50.301Z,15.93
2018-09-14T21:42:31.249Z,17.47
2018-09-14T21:45:12.037Z,15.47
2018-09-14T21:47:52.602Z,17.60
2018-09-14T21:50:33.465Z,15.83
2018-09-14T21:53:13.916Z,16.47
2018-09-14T21:55:54.810Z,17.23
2018-09-14T21:58:35.964Z,17.30
2018-09-14T22:01:22.083Z,17.07
2018-09-14T22:04:02.650Z,16.93
2018-09-14T22:06:43.519Z,16.13
2018-09-14T22:09:24.134Z,17.67
2018-09-14T22:12:06.080Z,16.87
2018-09-14T22:14:46.918Z,16.43
2018-09-14T22:17:27.757Z,16.93
2018-09-14T22:20:08.541Z,16.73
2018-09-14T22:22:49.575Z,16.57
2018-09-14T22:25:30.984Z,15.90
2018-09-14T22:28:11.733Z,16.27
2018-09-14T22:30:52.868Z,16.03
2018-09-14T22:33:34.000Z,17.27
2018-09-14T22:36:15.125Z,16.03
2018-09-14T22:38:55.963Z,14.80
2018-09-14T22:41:36.721Z,15.10
2018-09-14T22:44:18.045Z,14.93
2018-09-14T22:46:58.634Z,14.17
2018-09-14T22:49:39.915Z,13.87
2018-09-14T22:52:20.786Z,13.80
2018-09-14T22:55:01.827Z,14.67
2018-09-14T22:57:42.902Z,15.07
2018-09-14T23:00:29.041Z,13.87
2018-09-14T23:03:09.874Z,13.70
2018-09-14T23:05:50.351Z,13.50
2018-09-14T23:08:30.996Z,13.10
2018-09-14T23:11:11.672Z,13.33
2018-09-14T23:13:52.150Z,12.20
2018-09-14T23:16:32.941Z,11.77
2018-09-14T23:19:13.395Z,12.43
2018-09-14T23:21:54.138Z,12.53
2018-09-14T23:24:35.341Z,12.17
2018-09-14T23:27:15.749Z,12.10
2018-09-14T23:29:56.757Z,12.93
2018-09-14T23:32:37.190Z,11.77
2018-09-14T23:35:17.677Z,12.50
2018-09-14T23:37:58.424Z,12.17
2018-09-14T23:40:39.618Z,12.40
2018-09-14T23:43:20.550Z,11.33
2018-09-14T23:46:01.172Z,11.60
2018-09-14T23:48:41.744Z,11.10
2018-09-14T23:51:22.834Z,12.27
2018-09-14T23:54:03.393Z,11.93
2018-09-14T23:56:44.801Z,12.03
2018-09-14T23:59:25.714Z,12.20
